createdAt,value
2023-03-27T00:00:39.775Z,6.190
2023-03-27T00:01:42.921Z,6.183
2023-03-27T00:02:38.378Z,6.159
2023-03-27T00:03:37.504Z,6.148
2023-03-27T00:04:37.232Z,6.110
2023-03-27T00:05:37.478Z,6.110
2023-03-27T00:06:37.574Z,6.105
2023-03-27T00:07:37.560Z,6.096
2023-03-27T00:08:37.225Z,6.103
2023-03-27T00:09:37.695Z,6.071
2023-03-27T00:10:37.633Z,6.046
2023-03-27T00:11:36.561Z,6.033
2023-03-27T00:12:37.479Z,6.007
2023-03-27T00:13:49.206Z,5.964
2023-03-27T00:14:51.259Z,5.967
2023-03-27T00:16:55.140Z,5.955
2023-03-27T00:17:36.919Z,5.897
2023-03-27T00:18:37.302Z,5.914
2023-03-27T00:19:37.192Z,5.941
2023-03-27T00:20:37.077Z,5.924
2023-03-27T00:21:37.185Z,5.906
2023-03-27T00:22:37.427Z,5.867
2023-03-27T00:23:37.437Z,5.840
2023-03-27T00:24:37.387Z,5.828
2023-03-27T00:25:37.460Z,5.806
2023-03-27T00:26:37.195Z,5.816
2023-03-27T00:27:37.486Z,5.806
2023-03-27T00:28:37.371Z,5.798
2023-03-27T00:29:37.516Z,5.784
2023-03-27T00:30:37.278Z,5.769
2023-03-27T00:31:37.599Z,5.755
2023-03-27T00:32:37.992Z,5.739
2023-03-27T00:33:37.285Z,5.736
2023-03-27T00:34:37.050Z,5.726
2023-03-27T00:35:37.304Z,5.695
2023-03-27T00:36:37.699Z,5.679
2023-03-27T00:37:37.648Z,5.663
2023-03-27T00:39:09.199Z,5.656
2023-03-27T00:39:40.168Z,5.656
2023-03-27T00:40:37.416Z,5.635
2023-03-27T00:41:37.448Z,5.633
2023-03-27T00:42:37.115Z,5.613
2023-03-27T00:43:37.134Z,5.591
2023-03-27T00:44:38.640Z,5.581
2023-03-27T00:45:37.409Z,5.570
2023-03-27T00:46:37.868Z,5.539
2023-03-27T00:47:37.748Z,5.536
2023-03-27T00:48:37.439Z,5.539
2023-03-27T00:49:37.648Z,5.513
2023-03-27T00:50:37.465Z,5.5
2023-03-27T00:51:37.271Z,5.514
2023-03-27T00:52:36.789Z,5.536
2023-03-27T00:53:37.417Z,5.530
2023-03-27T00:54:37.422Z,5.525
2023-03-27T00:55:37.550Z,5.501
2023-03-27T00:56:37.185Z,5.498
2023-03-27T00:57:37.336Z,5.493
2023-03-27T00:58:36.932Z,5.473
2023-03-27T00:59:37.781Z,5.468
2023-03-27T01:00:38.555Z,5.465
2023-03-27T01:01:37.518Z,5.454
2023-03-27T01:02:37.699Z,5.443
2023-03-27T01:03:37.632Z,5.449
2023-03-27T01:04:37.523Z,5.443
2023-03-27T01:05:37.797Z,5.434
2023-03-27T01:06:37.715Z,5.440
2023-03-27T01:07:38.225Z,5.448
2023-03-27T01:08:37.236Z,5.453
2023-03-27T01:09:37.444Z,5.426
2023-03-27T01:10:37.601Z,5.428
2023-03-27T01:11:37.800Z,5.414
2023-03-27T01:12:37.579Z,5.391
2023-03-27T01:13:36.813Z,5.413
2023-03-27T01:14:37.713Z,5.386
2023-03-27T01:15:37.865Z,5.380
2023-03-27T01:16:37.706Z,5.388
2023-03-27T01:17:38.121Z,5.375
2023-03-27T01:18:37.240Z,5.364
2023-03-27T01:19:37.559Z,5.353
2023-03-27T01:20:37.436Z,5.361
2023-03-27T01:21:37.677Z,5.320
2023-03-27T01:22:37.430Z,5.323
2023-03-27T01:24:19.688Z,5.316
2023-03-27T01:24:48.063Z,5.276
2023-03-27T01:25:37.143Z,5.273
2023-03-27T01:26:50.721Z,5.223
2023-03-27T01:27:37.804Z,5.216
2023-03-27T01:28:37.514Z,5.215
2023-03-27T01:29:38.105Z,5.236
2023-03-27T01:30:37.841Z,5.216
2023-03-27T01:31:38.442Z,5.198
2023-03-27T01:32:37.389Z,5.203
2023-03-27T01:33:37.362Z,5.210
2023-03-27T01:34:37.360Z,5.190
2023-03-27T01:35:37.875Z,5.163
2023-03-27T01:36:37.312Z,5.161
2023-03-27T01:37:37.339Z,5.150
2023-03-27T01:38:36.683Z,5.159
2023-03-27T01:39:37.712Z,5.161
2023-03-27T01:40:37.410Z,5.163
2023-03-27T01:41:37.134Z,5.159
2023-03-27T01:42:37.143Z,5.163
2023-03-27T01:43:37.084Z,5.159
2023-03-27T01:44:44.626Z,5.121
2023-03-27T01:45:37.859Z,5.094
2023-03-27T01:46:38.042Z,5.141
2023-03-27T01:47:37.103Z,5.096
2023-03-27T01:48:37.145Z,5.094
2023-03-27T01:49:37.308Z,5.102
2023-03-27T01:50:37.215Z,5.111
2023-03-27T01:51:37.226Z,5.102
2023-03-27T01:52:37.213Z,5.064
2023-03-27T01:53:37.004Z,5.072
2023-03-27T01:54:37.057Z,5.054
2023-03-27T01:55:37.115Z,5.047
2023-03-27T01:56:36.889Z,5.019
2023-03-27T01:57:48.886Z,5.041
2023-03-27T01:58:37.607Z,5.058
2023-03-27T01:59:37.700Z,5.039
2023-03-27T02:00:51.333Z,4.985
2023-03-27T02:01:37.684Z,4.993
2023-03-27T02:02:37.963Z,4.965
2023-03-27T02:03:36.575Z,4.986
2023-03-27T02:04:37.640Z,4.965
2023-03-27T02:05:37.896Z,4.969
2023-03-27T02:06:38.226Z,4.968
2023-03-27T02:07:37.206Z,4.943
2023-03-27T02:08:38.036Z,4.940
2023-03-27T02:09:37.353Z,4.906
2023-03-27T02:10:37.750Z,4.941
2023-03-27T02:11:37.178Z,4.948
2023-03-27T02:12:37.206Z,4.928
2023-03-27T02:13:37.645Z,4.918
2023-03-27T02:14:37.485Z,4.880
2023-03-27T02:15:39.985Z,4.876
2023-03-27T02:16:36.879Z,4.875
2023-03-27T02:17:38.021Z,4.876
2023-03-27T02:18:36.985Z,4.868
2023-03-27T02:19:37.688Z,4.863
2023-03-27T02:20:37.822Z,4.856
2023-03-27T02:21:37.453Z,4.820
2023-03-27T02:22:52.775Z,4.809
2023-03-27T02:23:37.287Z,4.824
2023-03-27T02:24:37.149Z,4.808
2023-03-27T02:25:37.228Z,4.809
2023-03-27T02:26:37.769Z,4.798
2023-03-27T02:27:46.072Z,4.788
2023-03-27T02:28:36.676Z,4.763
2023-03-27T02:29:37.817Z,4.743
2023-03-27T02:30:38.229Z,4.763
2023-03-27T02:31:48.264Z,4.75
2023-03-27T02:32:37.559Z,4.723
2023-03-27T02:33:37.276Z,4.721
2023-03-27T02:34:37.788Z,4.726
2023-03-27T02:35:38.099Z,4.710
2023-03-27T02:36:37.246Z,4.688
2023-03-27T02:37:46.320Z,4.676
2023-03-27T02:38:37.498Z,4.678
2023-03-27T02:39:37.870Z,4.656
2023-03-27T02:40:39.771Z,4.673
2023-03-27T02:41:37.110Z,4.678
2023-03-27T02:42:36.724Z,4.679
2023-03-27T02:43:37.443Z,4.661
2023-03-27T02:44:46.288Z,4.686
2023-03-27T02:45:37.511Z,4.676
2023-03-27T02:46:37.316Z,4.656
2023-03-27T02:47:38.268Z,4.646
2023-03-27T02:48:37.199Z,4.644
2023-03-27T02:49:37.354Z,4.641
2023-03-27T02:50:37.593Z,4.626
2023-03-27T02:51:37.941Z,4.616
2023-03-27T02:52:38.292Z,4.606
2023-03-27T02:53:37.271Z,4.621
2023-03-27T02:54:37.539Z,4.628
2023-03-27T02:55:37.348Z,4.628
2023-03-27T02:56:37.503Z,4.648
2023-03-27T02:57:39.460Z,4.646
2023-03-27T02:58:37.028Z,4.651
2023-03-27T02:59:37.560Z,4.651
2023-03-27T03:00:39.285Z,4.619
2023-03-27T03:01:37.824Z,4.608
2023-03-27T03:02:38.188Z,4.594
2023-03-27T03:03:37.630Z,4.606
2023-03-27T03:04:37.755Z,4.635
2023-03-27T03:05:37.830Z,4.644
2023-03-27T03:06:38.366Z,4.621
2023-03-27T03:07:37.973Z,4.630
2023-03-27T03:08:37.513Z,4.603
2023-03-27T03:09:40.413Z,4.571
2023-03-27T03:10:37.577Z,4.603
2023-03-27T03:11:38.242Z,4.583
2023-03-27T03:12:37.229Z,4.596
2023-03-27T03:13:36.702Z,4.573
2023-03-27T03:14:37.272Z,4.570
2023-03-27T03:15:37.584Z,4.566
2023-03-27T03:16:37.471Z,4.603
2023-03-27T03:17:38.332Z,4.605
2023-03-27T03:18:37.629Z,4.588
2023-03-27T03:19:37.771Z,4.578
2023-03-27T03:20:38.578Z,4.571
2023-03-27T03:21:37.728Z,4.552
2023-03-27T03:22:37.608Z,4.535
2023-03-27T03:23:37.591Z,4.535
2023-03-27T03:24:37.695Z,4.559
2023-03-27T03:25:37.692Z,4.532
2023-03-27T03:26:37.784Z,4.528
2023-03-27T03:27:37.927Z,4.541
2023-03-27T03:28:37.780Z,4.532
2023-03-27T03:29:38.048Z,4.524
2023-03-27T03:30:37.582Z,4.511
2023-03-27T03:31:37.953Z,4.5
2023-03-27T03:32:37.811Z,4.508
2023-03-27T03:33:37.822Z,4.525
2023-03-27T03:34:37.632Z,4.525
2023-03-27T03:35:38.516Z,4.519
2023-03-27T03:36:38.144Z,4.528
2023-03-27T03:37:37.318Z,4.525
2023-03-27T03:38:38.069Z,4.514
2023-03-27T03:39:37.709Z,4.507
2023-03-27T03:40:37.586Z,4.469
2023-03-27T03:41:37.734Z,4.491
2023-03-27T03:42:38.700Z,4.469
2023-03-27T03:43:37.784Z,4.448
2023-03-27T03:44:37.954Z,4.448
2023-03-27T03:45:38.087Z,4.476
2023-03-27T03:46:37.473Z,4.465
2023-03-27T03:47:37.863Z,4.476
2023-03-27T03:48:38.137Z,4.445
2023-03-27T03:49:37.750Z,4.445
2023-03-27T03:50:38.469Z,4.416
2023-03-27T03:51:38.301Z,4.408
2023-03-27T03:52:37.893Z,4.426
2023-03-27T03:53:37.980Z,4.433
2023-03-27T03:54:36.822Z,4.414
2023-03-27T03:55:37.662Z,4.405
2023-03-27T03:56:38.387Z,4.398
2023-03-27T03:57:37.898Z,4.394
2023-03-27T03:58:49.272Z,4.393
2023-03-27T03:59:37.812Z,4.396
2023-03-27T04:00:39.383Z,4.398
2023-03-27T04:01:37.811Z,4.400
2023-03-27T04:02:38.468Z,4.388
2023-03-27T04:03:37.976Z,4.364
2023-03-27T04:04:37.676Z,4.368
2023-03-27T04:05:38.650Z,4.360
2023-03-27T04:06:38.437Z,4.341
2023-03-27T04:07:38.073Z,4.355
2023-03-27T04:08:37.359Z,4.343
2023-03-27T04:09:37.946Z,4.324
2023-03-27T04:10:38.654Z,4.335
2023-03-27T04:11:37.534Z,4.309
2023-03-27T04:12:38.015Z,4.301
2023-03-27T04:13:37.672Z,4.296
2023-03-27T04:14:38.740Z,4.289
2023-03-27T04:15:38.559Z,4.283
2023-03-27T04:16:37.706Z,4.266
2023-03-27T04:17:37.979Z,4.283
2023-03-27T04:18:37.386Z,4.260
2023-03-27T04:19:37.987Z,4.233
2023-03-27T04:20:38.384Z,4.224
2023-03-27T04:21:37.653Z,4.219
2023-03-27T04:22:38.352Z,4.204
2023-03-27T04:23:37.788Z,4.195
2023-03-27T04:24:38.493Z,4.164
2023-03-27T04:25:38.641Z,4.176
2023-03-27T04:26:38.623Z,4.196
2023-03-27T04:27:37.816Z,4.173
2023-03-27T04:28:38.356Z,4.123
2023-03-27T04:29:38.491Z,4.125
2023-03-27T04:30:38.706Z,4.133
2023-03-27T04:31:38.600Z,4.130
2023-03-27T04:32:38.929Z,4.110
2023-03-27T04:33:38.181Z,4.073
2023-03-27T04:34:37.791Z,4.081
2023-03-27T04:35:38.400Z,4.059
2023-03-27T04:36:38.477Z,4.071
2023-03-27T04:37:39.036Z,4.076
2023-03-27T04:38:42.856Z,4.079
2023-03-27T04:39:39.474Z,4.073
2023-03-27T04:40:43.115Z,4.078
2023-03-27T04:41:38.128Z,4.094
2023-03-27T04:42:38.060Z,4.078
2023-03-27T04:43:37.937Z,4.090
2023-03-27T04:44:39.113Z,4.101
2023-03-27T04:45:38.057Z,4.113
2023-03-27T04:46:37.726Z,4.111
2023-03-27T04:47:38.474Z,4.110
2023-03-27T04:48:38.076Z,4.098
2023-03-27T04:49:37.580Z,4.085
2023-03-27T04:50:46.214Z,4.050
2023-03-27T04:51:38.013Z,4.043
2023-03-27T04:52:45.506Z,4.041
2023-03-27T04:53:37.919Z,4.033
2023-03-27T04:54:38.909Z,4.031
2023-03-27T04:55:38.411Z,4.021
2023-03-27T04:56:38.835Z,4.024
2023-03-27T04:57:38.263Z,4.013
2023-03-27T04:58:37.871Z,4.027
2023-03-27T04:59:37.885Z,4.010
2023-03-27T05:00:39.883Z,3.998
2023-03-27T05:01:38.426Z,3.990
2023-03-27T05:02:52.771Z,4.002
2023-03-27T05:03:38.564Z,4.004
2023-03-27T05:04:38.005Z,3.991
2023-03-27T05:05:38.595Z,3.966
2023-03-27T05:06:39.307Z,3.960
2023-03-27T05:07:38.301Z,3.982
2023-03-27T05:08:37.650Z,3.984
2023-03-27T05:09:38.539Z,3.976
2023-03-27T05:10:38.041Z,3.962
2023-03-27T05:11:37.994Z,3.953
2023-03-27T05:12:37.733Z,3.937
2023-03-27T05:13:38.107Z,3.937
2023-03-27T05:14:38.179Z,3.934
2023-03-27T05:15:38.051Z,3.937
2023-03-27T05:16:38.745Z,3.936
2023-03-27T05:17:37.851Z,3.900
2023-03-27T05:18:38.560Z,3.908
2023-03-27T05:19:40.995Z,3.946
2023-03-27T05:20:37.980Z,3.973
2023-03-27T05:21:38.070Z,3.970
2023-03-27T05:22:38.709Z,3.980
2023-03-27T05:23:38.467Z,3.953
2023-03-27T05:25:00.353Z,3.930
2023-03-27T05:25:37.444Z,3.961
2023-03-27T05:26:38.629Z,3.966
2023-03-27T05:27:38.654Z,3.990
2023-03-27T05:28:38.449Z,3.998
2023-03-27T05:29:46.480Z,3.993
2023-03-27T05:30:46.874Z,3.993
2023-03-27T05:31:38.743Z,4.021
2023-03-27T05:32:37.960Z,4.033
2023-03-27T05:33:38.437Z,4.048
2023-03-27T05:34:38.374Z,4.063
2023-03-27T05:35:38.135Z,4.081
2023-03-27T05:36:38.128Z,4.099
2023-03-27T05:37:39.461Z,4.093
2023-03-27T05:38:38.082Z,4.108
2023-03-27T05:39:37.768Z,4.083
2023-03-27T05:40:38.563Z,4.085
2023-03-27T05:41:38.782Z,4.105
2023-03-27T05:42:38.161Z,4.113
2023-03-27T05:43:37.395Z,4.079
2023-03-27T05:44:38.113Z,4.119
2023-03-27T05:45:37.993Z,4.146
2023-03-27T05:46:37.704Z,4.143
2023-03-27T05:47:38.949Z,4.146
2023-03-27T05:48:37.599Z,4.170
2023-03-27T05:49:38.271Z,4.179
2023-03-27T05:50:37.842Z,4.184
2023-03-27T05:51:38.841Z,4.176
2023-03-27T05:52:43.571Z,4.178
2023-03-27T05:53:43.126Z,4.213
2023-03-27T05:54:37.890Z,4.223
2023-03-27T05:55:41.808Z,4.216
2023-03-27T05:56:37.994Z,4.218
2023-03-27T05:57:37.796Z,4.211
2023-03-27T05:58:37.640Z,4.215
2023-03-27T05:59:38.639Z,4.238
2023-03-27T06:01:10.516Z,4.273
2023-03-27T06:01:42.670Z,4.266
2023-03-27T06:02:39.282Z,4.284
2023-03-27T06:03:38.780Z,4.260
2023-03-27T06:04:38.471Z,4.275
2023-03-27T06:05:38.526Z,4.309
2023-03-27T06:06:38.844Z,4.335
2023-03-27T06:07:40.853Z,4.326
2023-03-27T06:08:38.430Z,4.331
2023-03-27T06:09:38.421Z,4.353
2023-03-27T06:10:37.929Z,4.355
2023-03-27T06:11:38.942Z,4.353
2023-03-27T06:12:38.790Z,4.363
2023-03-27T06:13:38.146Z,4.375
2023-03-27T06:14:38.181Z,4.413
2023-03-27T06:15:38.362Z,4.449
2023-03-27T06:16:37.665Z,4.461
2023-03-27T06:17:38.477Z,4.463
2023-03-27T06:18:37.566Z,4.446
2023-03-27T06:19:38.188Z,4.463
2023-03-27T06:20:39.288Z,4.458
2023-03-27T06:21:40.940Z,4.481
2023-03-27T06:22:39.238Z,4.541
2023-03-27T06:23:39.702Z,4.571
2023-03-27T06:24:38.758Z,4.621
2023-03-27T06:25:39.590Z,4.618
2023-03-27T06:26:39.359Z,4.648
2023-03-27T06:27:38.130Z,4.656
2023-03-27T06:28:37.246Z,4.652
2023-03-27T06:29:37.563Z,4.613
2023-03-27T06:30:38.330Z,4.648
2023-03-27T06:31:37.267Z,4.684
2023-03-27T06:32:38.151Z,4.713
2023-03-27T06:33:37.122Z,4.710
2023-03-27T06:34:38.064Z,4.671
2023-03-27T06:35:37.519Z,4.684
2023-03-27T06:36:37.978Z,4.695
2023-03-27T06:37:37.768Z,4.710
2023-03-27T06:38:38.285Z,4.742
2023-03-27T06:39:38.137Z,4.739
2023-03-27T06:40:38.815Z,4.739
2023-03-27T06:41:38.548Z,4.742
2023-03-27T06:42:38.041Z,4.753
2023-03-27T06:43:37.669Z,4.744
2023-03-27T06:44:38.460Z,4.744
2023-03-27T06:45:38.513Z,4.75
2023-03-27T06:46:47.197Z,4.768
2023-03-27T06:47:44.748Z,4.776
2023-03-27T06:48:40.836Z,4.808
2023-03-27T06:49:38.150Z,4.788
2023-03-27T06:50:37.654Z,4.828
2023-03-27T06:51:38.389Z,4.829
2023-03-27T06:52:38.436Z,4.818
2023-03-27T06:53:42.949Z,4.829
2023-03-27T06:54:38.753Z,4.809
2023-03-27T06:55:38.279Z,4.821
2023-03-27T06:56:38.342Z,4.840
2023-03-27T06:57:38.113Z,4.821
2023-03-27T06:58:37.880Z,4.835
2023-03-27T06:59:38.985Z,4.836
2023-03-27T07:00:40.450Z,4.816
2023-03-27T07:01:39.115Z,4.835
2023-03-27T07:02:38.313Z,4.828
2023-03-27T07:03:38.237Z,4.821
2023-03-27T07:04:38.859Z,4.748
2023-03-27T07:05:38.369Z,4.731
2023-03-27T07:06:39.660Z,4.751
2023-03-27T07:07:41.051Z,4.781
2023-03-27T07:08:39.788Z,4.796
2023-03-27T07:09:40.083Z,4.744
2023-03-27T07:10:38.222Z,4.691
2023-03-27T07:11:38.177Z,4.744
2023-03-27T07:12:37.835Z,4.786
2023-03-27T07:13:38.757Z,4.786
2023-03-27T07:14:38.815Z,4.698
2023-03-27T07:15:39.214Z,4.686
2023-03-27T07:16:38.286Z,4.713
2023-03-27T07:17:48.116Z,4.746
2023-03-27T07:18:37.992Z,4.769
2023-03-27T07:19:38.075Z,4.764
2023-03-27T07:20:38.671Z,4.768
2023-03-27T07:21:38.401Z,4.726
2023-03-27T07:22:37.794Z,4.678
2023-03-27T07:23:38.577Z,4.728
2023-03-27T07:24:38.262Z,4.679
2023-03-27T07:25:37.906Z,4.641
2023-03-27T07:26:38.208Z,4.75
2023-03-27T07:27:51.783Z,4.791
2023-03-27T07:28:37.905Z,4.846
2023-03-27T07:29:38.346Z,4.871
2023-03-27T07:30:38.494Z,4.903
2023-03-27T07:31:59.703Z,4.923
2023-03-27T07:32:51.523Z,4.901
2023-03-27T07:33:38.973Z,4.925
2023-03-27T07:34:37.796Z,4.949
2023-03-27T07:35:43.042Z,4.974
2023-03-27T07:36:37.545Z,4.966
2023-03-27T07:37:43.104Z,4.965
2023-03-27T07:38:37.165Z,5.003
2023-03-27T07:39:41.161Z,5.026
2023-03-27T07:40:47.743Z,5.050
2023-03-27T07:41:43.121Z,5.071
2023-03-27T07:42:37.957Z,5.146
2023-03-27T07:43:38.810Z,5.139
2023-03-27T07:44:38.621Z,5.123
2023-03-27T07:45:38.944Z,5.108
2023-03-27T07:46:37.827Z,5.158
2023-03-27T07:47:43.465Z,5.213
2023-03-27T07:48:37.988Z,5.263
2023-03-27T07:49:54.932Z,5.300
2023-03-27T07:50:39.172Z,5.280
2023-03-27T07:51:37.968Z,5.298
2023-03-27T07:52:38.149Z,5.313
2023-03-27T07:53:48.682Z,5.308
2023-03-27T07:54:38.176Z,5.285
2023-03-27T07:55:38.265Z,5.309
2023-03-27T07:56:38.062Z,5.308
2023-03-27T07:58:00.900Z,5.296
2023-03-27T07:58:38.259Z,5.294
2023-03-27T07:59:52.031Z,5.269
2023-03-27T08:00:38.901Z,5.261
2023-03-27T08:01:52.478Z,5.214
2023-03-27T08:02:38.147Z,5.219
2023-03-27T08:03:38.238Z,5.150
2023-03-27T08:04:38.388Z,5.181
2023-03-27T08:05:38.733Z,5.230
2023-03-27T08:06:38.308Z,5.348
2023-03-27T08:07:37.507Z,5.354
2023-03-27T08:08:38.039Z,5.381
2023-03-27T08:09:56.540Z,5.449
2023-03-27T08:10:37.934Z,5.487
2023-03-27T08:11:45.883Z,5.530
2023-03-27T08:12:38.069Z,5.538
2023-03-27T08:13:37.697Z,5.541
2023-03-27T08:14:38.056Z,5.518
2023-03-27T08:15:57.566Z,5.498
2023-03-27T08:16:37.770Z,5.530
2023-03-27T08:17:38.197Z,5.515
2023-03-27T08:18:38.503Z,5.530
2023-03-27T08:19:38.353Z,5.473
2023-03-27T08:20:38.369Z,5.431
2023-03-27T08:21:37.879Z,5.453
2023-03-27T08:22:38.769Z,5.449
2023-03-27T08:23:38.304Z,5.434
2023-03-27T08:24:38.202Z,5.448
2023-03-27T08:25:38.424Z,5.463
2023-03-27T08:26:38.144Z,5.438
2023-03-27T08:27:37.567Z,5.483
2023-03-27T08:28:37.406Z,5.513
2023-03-27T08:29:38.116Z,5.551
2023-03-27T08:30:38.294Z,5.565
2023-03-27T08:32:38.030Z,5.601
2023-03-27T08:33:37.509Z,5.639
2023-03-27T08:34:38.085Z,5.646
2023-03-27T08:35:37.674Z,5.646
2023-03-27T08:36:37.917Z,5.648
2023-03-27T08:37:38.585Z,5.630
2023-03-27T08:38:41.421Z,5.656
2023-03-27T08:39:37.993Z,5.683
2023-03-27T08:40:38.445Z,5.663
2023-03-27T08:41:37.781Z,5.633
2023-03-27T08:42:37.912Z,5.631
2023-03-27T08:43:38.269Z,5.664
2023-03-27T08:44:37.789Z,5.671
2023-03-27T08:45:38.715Z,5.736
2023-03-27T08:46:38.355Z,5.771
2023-03-27T08:47:37.358Z,5.771
2023-03-27T08:48:38.190Z,5.788
2023-03-27T08:49:37.452Z,5.783
2023-03-27T08:50:37.659Z,5.798
2023-03-27T08:51:37.850Z,5.808
2023-03-27T08:52:37.450Z,5.801
2023-03-27T08:53:38.175Z,5.806
2023-03-27T08:54:38.431Z,5.828
2023-03-27T08:55:38.490Z,5.866
2023-03-27T08:56:37.917Z,5.905
2023-03-27T08:57:38.632Z,5.906
2023-03-27T08:58:38.134Z,5.898
2023-03-27T08:59:37.588Z,5.900
2023-03-27T09:00:38.861Z,5.875
2023-03-27T09:01:38.758Z,5.891
2023-03-27T09:02:38.294Z,5.928
2023-03-27T09:03:38.157Z,5.896
2023-03-27T09:04:37.830Z,5.923
2023-03-27T09:05:37.992Z,5.976
2023-03-27T09:06:37.989Z,5.980
2023-03-27T09:07:37.677Z,5.938
2023-03-27T09:08:37.128Z,5.903
2023-03-27T09:09:38.104Z,5.866
2023-03-27T09:10:37.889Z,5.894
2023-03-27T09:11:38.130Z,5.914
2023-03-27T09:12:38.315Z,5.954
2023-03-27T09:13:37.554Z,5.961
2023-03-27T09:14:38.055Z,5.980
2023-03-27T09:15:38.047Z,5.931
2023-03-27T09:16:36.699Z,5.911
2023-03-27T09:17:38.101Z,5.846
2023-03-27T09:18:37.912Z,5.833
2023-03-27T09:19:38.429Z,5.869
2023-03-27T09:20:37.816Z,5.875
2023-03-27T09:21:38.004Z,5.864
2023-03-27T09:22:37.450Z,5.835
2023-03-27T09:23:37.447Z,5.811
2023-03-27T09:24:38.126Z,5.811
2023-03-27T09:25:38.280Z,5.831
2023-03-27T09:26:42.669Z,5.864
2023-03-27T09:27:38.146Z,5.852
2023-03-27T09:28:42.141Z,5.935
2023-03-27T09:29:37.833Z,5.954
2023-03-27T09:30:42.588Z,6.025
2023-03-27T09:31:37.994Z,6.084
2023-03-27T09:32:48.624Z,6.052
2023-03-27T09:33:38.196Z,6.047
2023-03-27T09:34:37.731Z,6.091
2023-03-27T09:35:38.777Z,6.159
2023-03-27T09:36:38.144Z,6.179
2023-03-27T09:37:38.374Z,6.142
2023-03-27T09:38:38.087Z,6.130
2023-03-27T09:39:37.225Z,6.165
2023-03-27T09:40:37.925Z,6.207
2023-03-27T09:41:38.088Z,6.188
2023-03-27T09:42:38.073Z,6.202
2023-03-27T09:43:39.267Z,6.260
2023-03-27T09:44:38.396Z,6.272
2023-03-27T09:45:38.047Z,6.262
2023-03-27T09:46:51.845Z,6.25
2023-03-27T09:47:38.827Z,6.217
2023-03-27T09:48:38.243Z,6.211
2023-03-27T09:49:38.222Z,6.226
2023-03-27T09:50:40.584Z,6.273
2023-03-27T09:51:38.098Z,6.300
2023-03-27T09:52:38.439Z,6.326
2023-03-27T09:53:37.979Z,6.349
2023-03-27T09:54:38.000Z,6.403
2023-03-27T09:55:38.331Z,6.416
2023-03-27T09:56:38.489Z,6.403
2023-03-27T09:57:37.852Z,6.434
2023-03-27T09:58:38.632Z,6.460
2023-03-27T09:59:38.864Z,6.505
2023-03-27T10:00:53.358Z,6.550
2023-03-27T10:01:37.992Z,6.478
2023-03-27T10:02:56.972Z,6.543
2023-03-27T10:03:38.098Z,6.563
2023-03-27T10:04:43.260Z,6.608
2023-03-27T10:05:38.180Z,6.598
2023-03-27T10:06:38.058Z,6.650
2023-03-27T10:07:37.847Z,6.673
2023-03-27T10:08:41.351Z,6.656
2023-03-27T10:09:38.508Z,6.578
2023-03-27T10:10:38.029Z,6.519
2023-03-27T10:11:36.795Z,6.493
2023-03-27T10:12:38.851Z,6.468
2023-03-27T10:13:38.038Z,6.548
2023-03-27T10:14:37.390Z,6.554
2023-03-27T10:15:38.263Z,6.541
2023-03-27T10:16:38.060Z,6.528
2023-03-27T10:17:37.962Z,6.525
2023-03-27T10:18:37.544Z,6.545
2023-03-27T10:19:38.807Z,6.571
2023-03-27T10:20:39.245Z,6.571
2023-03-27T10:21:38.338Z,6.593
2023-03-27T10:22:38.073Z,6.663
2023-03-27T10:23:37.964Z,6.675
2023-03-27T10:24:45.534Z,6.616
2023-03-27T10:25:38.695Z,6.621
2023-03-27T10:26:38.425Z,6.639
2023-03-27T10:27:37.840Z,6.619
2023-03-27T10:28:39.243Z,6.621
2023-03-27T10:29:40.989Z,6.618
2023-03-27T10:30:39.057Z,6.590
2023-03-27T10:31:38.253Z,6.574
2023-03-27T10:32:38.238Z,6.616
2023-03-27T10:33:38.727Z,6.533
2023-03-27T10:34:39.645Z,6.486
2023-03-27T10:35:38.686Z,6.519
2023-03-27T10:36:38.640Z,6.586
2023-03-27T10:37:38.483Z,6.601
2023-03-27T10:38:38.322Z,6.670
2023-03-27T10:39:37.659Z,6.653
2023-03-27T10:40:38.198Z,6.678
2023-03-27T10:41:43.592Z,6.648
2023-03-27T10:42:38.253Z,6.661
2023-03-27T10:43:37.086Z,6.706
2023-03-27T10:44:37.848Z,6.75
2023-03-27T10:45:38.891Z,6.743
2023-03-27T10:46:38.828Z,6.788
2023-03-27T10:47:38.543Z,6.776
2023-03-27T10:48:38.385Z,6.836
2023-03-27T10:49:38.529Z,6.798
2023-03-27T10:50:38.273Z,6.769
2023-03-27T10:51:46.412Z,6.753
2023-03-27T10:52:38.860Z,6.719
2023-03-27T10:53:38.528Z,6.761
2023-03-27T10:54:39.370Z,6.743
2023-03-27T10:55:39.077Z,6.708
2023-03-27T10:56:38.832Z,6.736
2023-03-27T10:57:38.704Z,6.703
2023-03-27T10:58:38.461Z,6.691
2023-03-27T10:59:55.643Z,6.685
2023-03-27T11:00:39.634Z,6.745
2023-03-27T11:01:39.156Z,6.737
2023-03-27T11:02:37.796Z,6.738
2023-03-27T11:03:38.157Z,6.705
2023-03-27T11:04:38.045Z,6.745
2023-03-27T11:05:39.862Z,6.771
2023-03-27T11:06:41.353Z,6.760
2023-03-27T11:07:38.141Z,6.783
2023-03-27T11:08:38.275Z,6.827
2023-03-27T11:09:39.260Z,6.872
2023-03-27T11:10:38.445Z,6.852
2023-03-27T11:11:38.397Z,6.857
2023-03-27T11:12:38.435Z,6.914
2023-03-27T11:13:38.779Z,6.964
2023-03-27T11:14:38.691Z,7.004
2023-03-27T11:15:38.985Z,7.047
2023-03-27T11:16:38.691Z,7.043
2023-03-27T11:17:44.126Z,7.116
2023-03-27T11:18:38.511Z,7.101
2023-03-27T11:19:38.392Z,7.070
2023-03-27T11:20:40.782Z,7.038
2023-03-27T11:21:38.545Z,7.053
2023-03-27T11:22:37.703Z,7.019
2023-03-27T11:23:38.642Z,6.963
2023-03-27T11:24:38.842Z,6.946
2023-03-27T11:25:39.111Z,6.966
2023-03-27T11:26:38.278Z,7.008
2023-03-27T11:27:38.416Z,6.994
2023-03-27T11:28:37.863Z,7.010
2023-03-27T11:29:39.122Z,7.021
2023-03-27T11:30:38.757Z,6.989
2023-03-27T11:31:39.185Z,6.968
2023-03-27T11:32:38.381Z,6.983
2023-03-27T11:33:38.323Z,7.016
2023-03-27T11:34:44.169Z,7.059
2023-03-27T11:35:38.330Z,7.105
2023-03-27T11:36:38.199Z,7.183
2023-03-27T11:37:38.527Z,7.221
2023-03-27T11:38:38.611Z,7.25
2023-03-27T11:39:38.097Z,7.275
2023-03-27T11:40:37.747Z,7.244
2023-03-27T11:41:38.712Z,7.286
2023-03-27T11:42:38.863Z,7.296
2023-03-27T11:43:38.673Z,7.309
2023-03-27T11:44:38.232Z,7.378
2023-03-27T11:45:38.533Z,7.416
2023-03-27T11:46:38.322Z,7.425
2023-03-27T11:47:38.576Z,7.423
2023-03-27T11:48:38.830Z,7.433
2023-03-27T11:49:38.338Z,7.445
2023-03-27T11:50:38.565Z,7.469
2023-03-27T11:51:38.114Z,7.488
2023-03-27T11:52:38.390Z,7.461
2023-03-27T11:53:42.744Z,7.454
2023-03-27T11:54:38.461Z,7.465
2023-03-27T11:55:47.121Z,7.508
2023-03-27T11:56:38.273Z,7.561
2023-03-27T11:57:38.059Z,7.590
2023-03-27T11:58:38.048Z,7.579
2023-03-27T11:59:42.965Z,7.590
2023-03-27T12:00:40.088Z,7.586
2023-03-27T12:01:39.190Z,7.543
2023-03-27T12:02:38.646Z,7.551
2023-03-27T12:03:38.516Z,7.570
2023-03-27T12:04:38.785Z,7.614
2023-03-27T12:05:46.816Z,7.719
2023-03-27T12:06:39.304Z,7.704
2023-03-27T12:07:50.721Z,7.679
2023-03-27T12:08:39.221Z,7.659
2023-03-27T12:09:38.227Z,7.678
2023-03-27T12:10:43.429Z,7.710
2023-03-27T12:11:38.175Z,7.638
2023-03-27T12:12:38.082Z,7.585
2023-03-27T12:13:52.112Z,7.550
2023-03-27T12:14:46.631Z,7.541
2023-03-27T12:15:38.946Z,7.538
2023-03-27T12:16:38.986Z,7.593
2023-03-27T12:17:38.133Z,7.684
2023-03-27T12:19:02.140Z,7.708
2023-03-27T12:19:41.719Z,7.625
2023-03-27T12:20:51.909Z,7.585
2023-03-27T12:21:51.670Z,7.576
2023-03-27T12:22:39.282Z,7.596
2023-03-27T12:23:37.525Z,7.638
2023-03-27T12:24:40.605Z,7.610
2023-03-27T12:25:38.437Z,7.619
2023-03-27T12:26:38.510Z,7.623
2023-03-27T12:27:38.261Z,7.621
2023-03-27T12:28:40.776Z,7.691
2023-03-27T12:29:39.408Z,7.711
2023-03-27T12:30:39.004Z,7.751
2023-03-27T12:31:44.150Z,7.760
2023-03-27T12:32:38.268Z,7.769
2023-03-27T12:33:38.108Z,7.762
2023-03-27T12:34:40.592Z,7.808
2023-03-27T12:35:41.761Z,7.789
2023-03-27T12:36:41.866Z,7.795
2023-03-27T12:37:44.856Z,7.814
2023-03-27T12:38:42.656Z,7.837
2023-03-27T12:39:46.650Z,7.880
2023-03-27T12:40:42.294Z,7.888
2023-03-27T12:42:00.793Z,7.941
2023-03-27T12:42:44.070Z,7.942
2023-03-27T12:43:41.136Z,7.941
2023-03-27T12:44:41.338Z,8.029
2023-03-27T12:46:00.810Z,8.071
2023-03-27T12:46:41.536Z,8.136
2023-03-27T12:47:40.369Z,8.121
2023-03-27T12:48:41.529Z,8.053
2023-03-27T12:49:57.124Z,8.081
2023-03-27T12:50:42.019Z,8.086
2023-03-27T12:51:41.670Z,8.090
2023-03-27T12:52:42.077Z,8.131
2023-03-27T12:53:41.203Z,8.131
2023-03-27T12:54:41.396Z,8.053
2023-03-27T12:55:41.475Z,7.948